sensor_id;sensor_type;location;lat;lon;timestamp;P1;durP1;ratioP1;P2;durP2;ratioP2
25922;SDS011;13725;51.170;4.442;2023-04-24T00:01:48;30.58;;;15.20;;
25922;SDS011;13725;51.170;4.442;2023-04-24T00:04:13;33.28;;;15.50;;
25922;SDS011;13725;51.170;4.442;2023-04-24T00:06:41;31.48;;;16.60;;
25922;SDS011;13725;51.170;4.442;2023-04-24T00:09:11;31.75;;;15.52;;
25922;SDS011;13725;51.170;4.442;2023-04-24T00:11:37;29.27;;;13.98;;
25922;SDS011;13725;51.170;4.442;2023-04-24T00:14:03;30.95;;;15.10;;
25922;SDS011;13725;51.170;4.442;2023-04-24T00:16:28;31.35;;;16.55;;
25922;SDS011;13725;51.170;4.442;2023-04-24T00:18:54;34.50;;;16.17;;
25922;SDS011;13725;51.170;4.442;2023-04-24T00:21:20;34.33;;;17.23;;
25922;SDS011;13725;51.170;4.442;2023-04-24T00:23:46;31.70;;;16.15;;
25922;SDS011;13725;51.170;4.442;2023-04-24T00:26:13;32.10;;;17.15;;
25922;SDS011;13725;51.170;4.442;2023-04-24T00:28:39;32.45;;;17.80;;
25922;SDS011;13725;51.170;4.442;2023-04-24T00:31:05;29.52;;;17.38;;
25922;SDS011;13725;51.170;4.442;2023-04-24T00:33:30;27.63;;;16.17;;
25922;SDS011;13725;51.170;4.442;2023-04-24T00:35:56;33.58;;;17.95;;
25922;SDS011;13725;51.170;4.442;2023-04-24T00:38:23;34.45;;;18.85;;
25922;SDS011;13725;51.170;4.442;2023-04-24T00:40:48;39.03;;;17.83;;
25922;SDS011;13725;51.170;4.442;2023-04-24T00:43:19;35.75;;;18.05;;
25922;SDS011;13725;51.170;4.442;2023-04-24T00:45:45;36.47;;;17.42;;
25922;SDS011;13725;51.170;4.442;2023-04-24T00:48:11;31.17;;;17.23;;
25922;SDS011;13725;51.170;4.442;2023-04-24T00:50:38;33.75;;;17.55;;
25922;SDS011;13725;51.170;4.442;2023-04-24T00:53:04;31.52;;;17.38;;
25922;SDS011;13725;51.170;4.442;2023-04-24T00:55:30;34.38;;;17.25;;
25922;SDS011;13725;51.170;4.442;2023-04-24T00:57:57;27.20;;;16.75;;
25922;SDS011;13725;51.170;4.442;2023-04-24T01:00:24;34.50;;;17.58;;
25922;SDS011;13725;51.170;4.442;2023-04-24T01:02:50;35.20;;;18.33;;
25922;SDS011;13725;51.170;4.442;2023-04-24T01:05:19;31.17;;;17.15;;
25922;SDS011;13725;51.170;4.442;2023-04-24T01:07:45;25.88;;;15.75;;
25922;SDS011;13725;51.170;4.442;2023-04-24T01:10:13;29.55;;;17.05;;
25922;SDS011;13725;51.170;4.442;2023-04-24T01:12:40;28.35;;;15.80;;
25922;SDS011;13725;51.170;4.442;2023-04-24T01:15:06;27.33;;;15.38;;
25922;SDS011;13725;51.170;4.442;2023-04-24T01:17:34;36.30;;;16.73;;
25922;SDS011;13725;51.170;4.442;2023-04-24T01:20:00;29.60;;;15.82;;
25922;SDS011;13725;51.170;4.442;2023-04-24T01:22:26;31.48;;;17.08;;
25922;SDS011;13725;51.170;4.442;2023-04-24T01:24:52;36.55;;;16.45;;
25922;SDS011;13725;51.170;4.442;2023-04-24T01:27:19;29.90;;;16.42;;
25922;SDS011;13725;51.170;4.442;2023-04-24T01:29:45;24.65;;;14.30;;
25922;SDS011;13725;51.170;4.442;2023-04-24T01:32:12;26.58;;;15.35;;
25922;SDS011;13725;51.170;4.442;2023-04-24T01:34:39;25.88;;;14.40;;
25922;SDS011;13725;51.170;4.442;2023-04-24T01:37:06;20.60;;;12.70;;
25922;SDS011;13725;51.170;4.442;2023-04-24T01:39:32;23.23;;;12.57;;
25922;SDS011;13725;51.170;4.442;2023-04-24T01:41:58;20.92;;;12.93;;
25922;SDS011;13725;51.170;4.442;2023-04-24T01:44:27;22.58;;;12.68;;
25922;SDS011;13725;51.170;4.442;2023-04-24T01:46:54;19.45;;;11.82;;
25922;SDS011;13725;51.170;4.442;2023-04-24T01:49:20;20.70;;;11.10;;
25922;SDS011;13725;51.170;4.442;2023-04-24T01:51:46;23.48;;;11.00;;
25922;SDS011;13725;51.170;4.442;2023-04-24T01:54:12;20.50;;;10.75;;
25922;SDS011;13725;51.170;4.442;2023-04-24T01:56:40;19.95;;;11.40;;
25922;SDS011;13725;51.170;4.442;2023-04-24T01:59:09;18.50;;;11.95;;
25922;SDS011;13725;51.170;4.442;2023-04-24T02:01:36;23.98;;;11.30;;
25922;SDS011;13725;51.170;4.442;2023-04-24T02:04:03;26.42;;;11.15;;
25922;SDS011;13725;51.170;4.442;2023-04-24T02:06:29;18.50;;;11.77;;
25922;SDS011;13725;51.170;4.442;2023-04-24T02:08:56;15.77;;;10.60;;
25922;SDS011;13725;51.170;4.442;2023-04-24T02:11:24;19.05;;;10.93;;
25922;SDS011;13725;51.170;4.442;2023-04-24T02:13:50;18.08;;;10.40;;
25922;SDS011;13725;51.170;4.442;2023-04-24T02:16:16;23.27;;;11.27;;
25922;SDS011;13725;51.170;4.442;2023-04-24T02:18:42;19.27;;;11.45;;
25922;SDS011;13725;51.170;4.442;2023-04-24T02:21:08;16.02;;;10.82;;
25922;SDS011;13725;51.170;4.442;2023-04-24T02:23:35;21.33;;;10.45;;
25922;SDS011;13725;51.170;4.442;2023-04-24T02:26:00;21.00;;;12.10;;
25922;SDS011;13725;51.170;4.442;2023-04-24T02:28:26;17.02;;;11.75;;
25922;SDS011;13725;51.170;4.442;2023-04-24T02:30:52;17.42;;;11.68;;
25922;SDS011;13725;51.170;4.442;2023-04-24T02:33:21;21.48;;;12.68;;
25922;SDS011;13725;51.170;4.442;2023-04-24T02:35:47;20.33;;;11.38;;
25922;SDS011;13725;51.170;4.442;2023-04-24T02:38:12;23.70;;;12.85;;
25922;SDS011;13725;51.170;4.442;2023-04-24T02:40:38;19.75;;;11.00;;
25922;SDS011;13725;51.170;4.442;2023-04-24T02:43:04;17.63;;;10.57;;
25922;SDS011;13725;51.170;4.442;2023-04-24T02:45:30;14.82;;;9.40;;
25922;SDS011;13725;51.170;4.442;2023-04-24T02:47:56;14.63;;;10.05;;
25922;SDS011;13725;51.170;4.442;2023-04-24T02:50:21;17.42;;;10.32;;
25922;SDS011;13725;51.170;4.442;2023-04-24T02:52:47;15.35;;;9.18;;
25922;SDS011;13725;51.170;4.442;2023-04-24T02:55:13;15.73;;;8.98;;
25922;SDS011;13725;51.170;4.442;2023-04-24T02:57:38;14.43;;;9.07;;
25922;SDS011;13725;51.170;4.442;2023-04-24T03:00:04;16.33;;;9.75;;
25922;SDS011;13725;51.170;4.442;2023-04-24T03:02:32;16.73;;;9.80;;
25922;SDS011;13725;51.170;4.442;2023-04-24T03:04:59;15.88;;;9.52;;
25922;SDS011;13725;51.170;4.442;2023-04-24T03:07:24;16.15;;;10.68;;
25922;SDS011;13725;51.170;4.442;2023-04-24T03:09:50;17.83;;;9.05;;
25922;SDS011;13725;51.170;4.442;2023-04-24T03:12:16;16.67;;;9.52;;
25922;SDS011;13725;51.170;4.442;2023-04-24T03:14:43;14.02;;;8.95;;
25922;SDS011;13725;51.170;4.442;2023-04-24T03:17:09;17.25;;;9.73;;
25922;SDS011;13725;51.170;4.442;2023-04-24T03:19:34;16.52;;;9.98;;
25922;SDS011;13725;51.170;4.442;2023-04-24T03:24:35;18.23;;;10.07;;
25922;SDS011;13725;51.170;4.442;2023-04-24T03:27:01;16.60;;;10.93;;
25922;SDS011;13725;51.170;4.442;2023-04-24T03:29:44;18.80;;;11.67;;
25922;SDS011;13725;51.170;4.442;2023-04-24T03:32:10;20.35;;;12.32;;
25922;SDS011;13725;51.170;4.442;2023-04-24T03:34:37;19.15;;;11.77;;
25922;SDS011;13725;51.170;4.442;2023-04-24T03:37:03;21.05;;;12.40;;
25922;SDS011;13725;51.170;4.442;2023-04-24T03:39:30;23.08;;;12.77;;
25922;SDS011;13725;51.170;4.442;2023-04-24T03:41:55;22.48;;;13.10;;
25922;SDS011;13725;51.170;4.442;2023-04-24T03:44:28;21.95;;;11.75;;
25922;SDS011;13725;51.170;4.442;2023-04-24T03:46:54;24.20;;;11.82;;
25922;SDS011;13725;51.170;4.442;2023-04-24T03:49:22;22.25;;;11.10;;
25922;SDS011;13725;51.170;4.442;2023-04-24T03:51:48;14.93;;;9.52;;
25922;SDS011;13725;51.170;4.442;2023-04-24T03:54:21;22.30;;;9.77;;
25922;SDS011;13725;51.170;4.442;2023-04-24T03:56:48;14.45;;;8.38;;
25922;SDS011;13725;51.170;4.442;2023-04-24T03:59:14;17.65;;;8.30;;
25922;SDS011;13725;51.170;4.442;2023-04-24T04:01:43;14.07;;;6.28;;
25922;SDS011;13725;51.170;4.442;2023-04-24T04:04:13;13.70;;;5.82;;
25922;SDS011;13725;51.170;4.442;2023-04-24T04:06:39;13.43;;;5.95;;
25922;SDS011;13725;51.170;4.442;2023-04-24T04:09:05;8.85;;;5.63;;
25922;SDS011;13725;51.170;4.442;2023-04-24T04:11:32;14.85;;;5.13;;
25922;SDS011;13725;51.170;4.442;2023-04-24T04:13:58;9.25;;;5.18;;
25922;SDS011;13725;51.170;4.442;2023-04-24T04:16:24;18.27;;;7.43;;
25922;SDS011;13725;51.170;4.442;2023-04-24T04:18:55;12.75;;;5.85;;
25922;SDS011;13725;51.170;4.442;2023-04-24T04:21:21;11.10;;;4.97;;
25922;SDS011;13725;51.170;4.442;2023-04-24T04:23:50;12.98;;;5.55;;
25922;SDS011;13725;51.170;4.442;2023-04-24T04:26:24;12.18;;;6.03;;
25922;SDS011;13725;51.170;4.442;2023-04-24T04:29:11;17.67;;;7.00;;
25922;SDS011;13725;51.170;4.442;2023-04-24T04:31:41;15.02;;;7.13;;
25922;SDS011;13725;51.170;4.442;2023-04-24T04:34:10;13.95;;;6.95;;
25922;SDS011;13725;51.170;4.442;2023-04-24T04:36:38;17.17;;;8.27;;
25922;SDS011;13725;51.170;4.442;2023-04-24T04:39:34;17.92;;;7.45;;
25922;SDS011;13725;51.170;4.442;2023-04-24T04:42:05;12.45;;;7.25;;
25922;SDS011;13725;51.170;4.442;2023-04-24T04:44:39;14.48;;;8.05;;
25922;SDS011;13725;51.170;4.442;2023-04-24T04:47:06;18.25;;;9.63;;
25922;SDS011;13725;51.170;4.442;2023-04-24T04:49:35;26.15;;;10.35;;
25922;SDS011;13725;51.170;4.442;2023-04-24T04:52:02;27.80;;;13.48;;
25922;SDS011;13725;51.170;4.442;2023-04-24T04:54:28;39.78;;;16.65;;
25922;SDS011;13725;51.170;4.442;2023-04-24T04:56:55;36.05;;;15.98;;
25922;SDS011;13725;51.170;4.442;2023-04-24T04:59:22;44.60;;;17.63;;
25922;SDS011;13725;51.170;4.442;2023-04-24T05:01:53;38.38;;;18.35;;
25922;SDS011;13725;51.170;4.442;2023-04-24T05:04:20;39.35;;;19.45;;
25922;SDS011;13725;51.170;4.442;2023-04-24T05:06:46;38.53;;;14.93;;
25922;SDS011;13725;51.170;4.442;2023-04-24T05:09:12;32.53;;;14.82;;
25922;SDS011;13725;51.170;4.442;2023-04-24T05:11:50;36.17;;;13.27;;
25922;SDS011;13725;51.170;4.442;2023-04-24T05:14:16;24.10;;;13.10;;
25922;SDS011;13725;51.170;4.442;2023-04-24T05:16:43;64.15;;;15.60;;
25922;SDS011;13725;51.170;4.442;2023-04-24T05:19:10;27.00;;;12.23;;
25922;SDS011;13725;51.170;4.442;2023-04-24T05:21:40;27.63;;;11.90;;
25922;SDS011;13725;51.170;4.442;2023-04-24T05:24:07;31.08;;;13.77;;
25922;SDS011;13725;51.170;4.442;2023-04-24T05:27:04;29.90;;;14.20;;
25922;SDS011;13725;51.170;4.442;2023-04-24T05:29:37;25.75;;;13.55;;
25922;SDS011;13725;51.170;4.442;2023-04-24T05:32:04;25.40;;;12.57;;
25922;SDS011;13725;51.170;4.442;2023-04-24T05:34:30;21.45;;;9.57;;
25922;SDS011;13725;51.170;4.442;2023-04-24T05:36:57;24.80;;;8.75;;
25922;SDS011;13725;51.170;4.442;2023-04-24T05:39:22;16.70;;;8.15;;
25922;SDS011;13725;51.170;4.442;2023-04-24T05:41:50;24.60;;;9.00;;
25922;SDS011;13725;51.170;4.442;2023-04-24T05:44:16;22.30;;;8.70;;
25922;SDS011;13725;51.170;4.442;2023-04-24T05:46:42;21.50;;;9.02;;
25922;SDS011;13725;51.170;4.442;2023-04-24T05:49:09;23.98;;;11.02;;
25922;SDS011;13725;51.170;4.442;2023-04-24T05:51:35;22.13;;;9.23;;
25922;SDS011;13725;51.170;4.442;2023-04-24T05:54:01;20.75;;;9.40;;
25922;SDS011;13725;51.170;4.442;2023-04-24T05:56:28;27.00;;;10.15;;
25922;SDS011;13725;51.170;4.442;2023-04-24T05:58:55;28.55;;;10.25;;
25922;SDS011;13725;51.170;4.442;2023-04-24T06:01:21;24.33;;;10.90;;
25922;SDS011;13725;51.170;4.442;2023-04-24T06:06:20;32.72;;;14.80;;
25922;SDS011;13725;51.170;4.442;2023-04-24T06:08:46;54.72;;;18.85;;
25922;SDS011;13725;51.170;4.442;2023-04-24T06:11:12;52.50;;;21.02;;
25922;SDS011;13725;51.170;4.442;2023-04-24T06:13:38;48.28;;;18.48;;
25922;SDS011;13725;51.170;4.442;2023-04-24T06:16:30;31.88;;;16.40;;
25922;SDS011;13725;51.170;4.442;2023-04-24T06:19:02;33.28;;;14.00;;
25922;SDS011;13725;51.170;4.442;2023-04-24T06:21:28;36.40;;;13.43;;
25922;SDS011;13725;51.170;4.442;2023-04-24T06:23:54;31.88;;;13.45;;
25922;SDS011;13725;51.170;4.442;2023-04-24T06:26:21;26.50;;;13.65;;
25922;SDS011;13725;51.170;4.442;2023-04-24T06:28:47;36.00;;;13.85;;
25922;SDS011;13725;51.170;4.442;2023-04-24T06:31:13;31.58;;;13.13;;
25922;SDS011;13725;51.170;4.442;2023-04-24T06:33:39;30.77;;;13.25;;
25922;SDS011;13725;51.170;4.442;2023-04-24T06:36:05;28.15;;;14.20;;
25922;SDS011;13725;51.170;4.442;2023-04-24T06:38:31;28.88;;;12.45;;
25922;SDS011;13725;51.170;4.442;2023-04-24T06:40:57;34.63;;;13.05;;
25922;SDS011;13725;51.170;4.442;2023-04-24T06:43:23;27.27;;;14.05;;
25922;SDS011;13725;51.170;4.442;2023-04-24T06:45:49;35.38;;;14.35;;
25922;SDS011;13725;51.170;4.442;2023-04-24T06:48:15;30.73;;;14.13;;
25922;SDS011;13725;51.170;4.442;2023-04-24T06:50:41;35.13;;;14.77;;
25922;SDS011;13725;51.170;4.442;2023-04-24T06:53:06;33.42;;;14.25;;
25922;SDS011;13725;51.170;4.442;2023-04-24T06:55:32;33.10;;;14.13;;
25922;SDS011;13725;51.170;4.442;2023-04-24T06:57:58;34.55;;;14.02;;
25922;SDS011;13725;51.170;4.442;2023-04-24T07:00:24;31.92;;;13.25;;
25922;SDS011;13725;51.170;4.442;2023-04-24T07:02:50;33.22;;;13.05;;
25922;SDS011;13725;51.170;4.442;2023-04-24T07:05:15;28.40;;;12.20;;
25922;SDS011;13725;51.170;4.442;2023-04-24T07:07:45;28.05;;;10.70;;
25922;SDS011;13725;51.170;4.442;2023-04-24T07:10:12;20.75;;;9.40;;
25922;SDS011;13725;51.170;4.442;2023-04-24T07:12:39;19.42;;;7.95;;
25922;SDS011;13725;51.170;4.442;2023-04-24T07:15:05;25.48;;;8.15;;
25922;SDS011;13725;51.170;4.442;2023-04-24T07:17:33;21.50;;;8.45;;
25922;SDS011;13725;51.170;4.442;2023-04-24T07:20:00;24.63;;;8.57;;
25922;SDS011;13725;51.170;4.442;2023-04-24T07:22:26;22.42;;;8.45;;
25922;SDS011;13725;51.170;4.442;2023-04-24T07:24:51;25.38;;;7.95;;
25922;SDS011;13725;51.170;4.442;2023-04-24T07:27:17;19.30;;;6.93;;
25922;SDS011;13725;51.170;4.442;2023-04-24T07:29:43;17.48;;;6.38;;
25922;SDS011;13725;51.170;4.442;2023-04-24T07:32:09;14.15;;;6.60;;
25922;SDS011;13725;51.170;4.442;2023-04-24T07:34:34;19.70;;;5.50;;
25922;SDS011;13725;51.170;4.442;2023-04-24T07:37:00;18.10;;;5.95;;
25922;SDS011;13725;51.170;4.442;2023-04-24T07:39:27;15.80;;;5.53;;
25922;SDS011;13725;51.170;4.442;2023-04-24T07:41:54;12.90;;;5.38;;
25922;SDS011;13725;51.170;4.442;2023-04-24T07:44:19;16.92;;;4.30;;
25922;SDS011;13725;51.170;4.442;2023-04-24T07:46:45;17.90;;;4.40;;
25922;SDS011;13725;51.170;4.442;2023-04-24T07:49:11;11.23;;;4.07;;
25922;SDS011;13725;51.170;4.442;2023-04-24T07:51:37;13.73;;;3.95;;
25922;SDS011;13725;51.170;4.442;2023-04-24T07:54:04;19.25;;;4.20;;
25922;SDS011;13725;51.170;4.442;2023-04-24T07:56:33;10.55;;;4.43;;
25922;SDS011;13725;51.170;4.442;2023-04-24T07:58:59;15.15;;;3.60;;
25922;SDS011;13725;51.170;4.442;2023-04-24T08:01:26;11.88;;;3.97;;
25922;SDS011;13725;51.170;4.442;2023-04-24T08:03:52;15.38;;;3.55;;
25922;SDS011;13725;51.170;4.442;2023-04-24T08:06:17;19.33;;;3.88;;
25922;SDS011;13725;51.170;4.442;2023-04-24T08:08:43;20.90;;;4.85;;
25922;SDS011;13725;51.170;4.442;2023-04-24T08:11:09;13.90;;;4.10;;
25922;SDS011;13725;51.170;4.442;2023-04-24T08:13:35;17.70;;;3.60;;
25922;SDS011;13725;51.170;4.442;2023-04-24T08:16:01;17.58;;;4.30;;
25922;SDS011;13725;51.170;4.442;2023-04-24T08:18:27;21.92;;;4.53;;
25922;SDS011;13725;51.170;4.442;2023-04-24T08:20:52;19.83;;;6.07;;
25922;SDS011;13725;51.170;4.442;2023-04-24T08:23:18;13.30;;;3.97;;
25922;SDS011;13725;51.170;4.442;2023-04-24T08:25:44;16.60;;;4.82;;
25922;SDS011;13725;51.170;4.442;2023-04-24T08:28:10;17.80;;;4.55;;
25922;SDS011;13725;51.170;4.442;2023-04-24T08:30:36;16.88;;;4.60;;
25922;SDS011;13725;51.170;4.442;2023-04-24T08:33:03;20.00;;;4.72;;
25922;SDS011;13725;51.170;4.442;2023-04-24T08:35:29;20.77;;;4.68;;
25922;SDS011;13725;51.170;4.442;2023-04-24T08:37:55;13.50;;;4.10;;
25922;SDS011;13725;51.170;4.442;2023-04-24T08:40:22;15.10;;;4.45;;
25922;SDS011;13725;51.170;4.442;2023-04-24T08:42:56;14.80;;;4.60;;
25922;SDS011;13725;51.170;4.442;2023-04-24T08:45:22;23.85;;;6.43;;
25922;SDS011;13725;51.170;4.442;2023-04-24T08:47:48;16.00;;;5.88;;
25922;SDS011;13725;51.170;4.442;2023-04-24T08:50:15;19.75;;;5.20;;
25922;SDS011;13725;51.170;4.442;2023-04-24T08:52:41;13.27;;;3.92;;
25922;SDS011;13725;51.170;4.442;2023-04-24T08:55:08;14.18;;;4.10;;
25922;SDS011;13725;51.170;4.442;2023-04-24T08:57:34;14.43;;;3.70;;
25922;SDS011;13725;51.170;4.442;2023-04-24T09:00:03;18.50;;;5.35;;
25922;SDS011;13725;51.170;4.442;2023-04-24T09:02:31;12.65;;;3.90;;
25922;SDS011;13725;51.170;4.442;2023-04-24T09:04:59;14.68;;;4.10;;
25922;SDS011;13725;51.170;4.442;2023-04-24T09:07:27;15.93;;;4.78;;
25922;SDS011;13725;51.170;4.442;2023-04-24T09:09:54;16.05;;;3.80;;
25922;SDS011;13725;51.170;4.442;2023-04-24T09:12:20;13.20;;;3.55;;
25922;SDS011;13725;51.170;4.442;2023-04-24T09:14:46;14.38;;;3.63;;
25922;SDS011;13725;51.170;4.442;2023-04-24T09:17:15;15.70;;;3.92;;
25922;SDS011;13725;51.170;4.442;2023-04-24T09:19:40;14.57;;;3.05;;
25922;SDS011;13725;51.170;4.442;2023-04-24T09:22:09;18.83;;;4.15;;
25922;SDS011;13725;51.170;4.442;2023-04-24T09:24:36;20.67;;;4.05;;
25922;SDS011;13725;51.170;4.442;2023-04-24T09:27:02;12.45;;;3.92;;
25922;SDS011;13725;51.170;4.442;2023-04-24T09:29:29;15.80;;;4.25;;
25922;SDS011;13725;51.170;4.442;2023-04-24T09:31:55;17.48;;;4.85;;
25922;SDS011;13725;51.170;4.442;2023-04-24T09:34:21;16.13;;;5.03;;
25922;SDS011;13725;51.170;4.442;2023-04-24T09:36:49;15.45;;;4.95;;
25922;SDS011;13725;51.170;4.442;2023-04-24T09:39:15;13.45;;;4.25;;
25922;SDS011;13725;51.170;4.442;2023-04-24T09:44:19;17.60;;;5.13;;
25922;SDS011;13725;51.170;4.442;2023-04-24T09:46:59;12.15;;;3.53;;
25922;SDS011;13725;51.170;4.442;2023-04-24T09:49:29;10.68;;;3.03;;
25922;SDS011;13725;51.170;4.442;2023-04-24T09:52:04;10.52;;;3.78;;
25922;SDS011;13725;51.170;4.442;2023-04-24T09:54:31;10.48;;;3.65;;
25922;SDS011;13725;51.170;4.442;2023-04-24T09:56:57;10.38;;;3.35;;
25922;SDS011;13725;51.170;4.442;2023-04-24T09:59:22;7.60;;;3.50;;
25922;SDS011;13725;51.170;4.442;2023-04-24T10:01:48;6.95;;;2.38;;
25922;SDS011;13725;51.170;4.442;2023-04-24T10:04:17;6.22;;;2.25;;
25922;SDS011;13725;51.170;4.442;2023-04-24T10:06:45;7.70;;;2.42;;
25922;SDS011;13725;51.170;4.442;2023-04-24T10:09:14;6.30;;;2.20;;
25922;SDS011;13725;51.170;4.442;2023-04-24T10:11:41;4.35;;;1.70;;
25922;SDS011;13725;51.170;4.442;2023-04-24T10:14:12;5.55;;;1.90;;
25922;SDS011;13725;51.170;4.442;2023-04-24T10:16:40;3.00;;;1.45;;
25922;SDS011;13725;51.170;4.442;2023-04-24T10:19:07;3.80;;;1.55;;
25922;SDS011;13725;51.170;4.442;2023-04-24T10:21:33;5.63;;;1.65;;
25922;SDS011;13725;51.170;4.442;2023-04-24T10:24:01;8.65;;;1.83;;
25922;SDS011;13725;51.170;4.442;2023-04-24T10:26:28;4.13;;;1.40;;
25922;SDS011;13725;51.170;4.442;2023-04-24T10:28:54;5.40;;;1.67;;
25922;SDS011;13725;51.170;4.442;2023-04-24T10:31:24;3.83;;;1.90;;
25922;SDS011;13725;51.170;4.442;2023-04-24T10:33:50;4.60;;;1.65;;
25922;SDS011;13725;51.170;4.442;2023-04-24T10:36:17;9.45;;;2.67;;
25922;SDS011;13725;51.170;4.442;2023-04-24T10:38:43;7.68;;;1.90;;
25922;SDS011;13725;51.170;4.442;2023-04-24T10:41:13;4.88;;;1.83;;
25922;SDS011;13725;51.170;4.442;2023-04-24T10:46:11;6.82;;;1.80;;
25922;SDS011;13725;51.170;4.442;2023-04-24T10:48:51;9.38;;;2.08;;
25922;SDS011;13725;51.170;4.442;2023-04-24T10:51:21;6.57;;;1.95;;
25922;SDS011;13725;51.170;4.442;2023-04-24T10:53:51;7.07;;;2.00;;
25922;SDS011;13725;51.170;4.442;2023-04-24T10:56:17;8.20;;;2.17;;
25922;SDS011;13725;51.170;4.442;2023-04-24T11:01:29;4.75;;;2.05;;
25922;SDS011;13725;51.170;4.442;2023-04-24T11:03:58;6.03;;;1.73;;
25922;SDS011;13725;51.170;4.442;2023-04-24T11:06:35;5.60;;;1.70;;
25922;SDS011;13725;51.170;4.442;2023-04-24T11:09:05;4.53;;;1.70;;
25922;SDS011;13725;51.170;4.442;2023-04-24T11:11:32;4.93;;;1.40;;
25922;SDS011;13725;51.170;4.442;2023-04-24T11:16:31;7.03;;;1.60;;
25922;SDS011;13725;51.170;4.442;2023-04-24T11:22:13;5.10;;;1.63;;
25922;SDS011;13725;51.170;4.442;2023-04-24T11:24:27;5.80;;;1.50;;
25922;SDS011;13725;51.170;4.442;2023-04-24T11:30:05;5.32;;;1.33;;
25922;SDS011;13725;51.170;4.442;2023-04-24T11:35:16;3.70;;;1.10;;
25922;SDS011;13725;51.170;4.442;2023-04-24T11:37:44;4.65;;;1.10;;
25922;SDS011;13725;51.170;4.442;2023-04-24T11:40:11;3.47;;;1.00;;
25922;SDS011;13725;51.170;4.442;2023-04-24T11:42:44;5.07;;;1.30;;
25922;SDS011;13725;51.170;4.442;2023-04-24T11:45:12;3.65;;;1.00;;
25922;SDS011;13725;51.170;4.442;2023-04-24T11:47:40;5.60;;;1.00;;
25922;SDS011;13725;51.170;4.442;2023-04-24T11:50:07;2.08;;;1.23;;
25922;SDS011;13725;51.170;4.442;2023-04-24T11:52:39;4.43;;;1.25;;
25922;SDS011;13725;51.170;4.442;2023-04-24T11:57:45;2.80;;;1.10;;
25922;SDS011;13725;51.170;4.442;2023-04-24T12:00:15;4.93;;;1.02;;
25922;SDS011;13725;51.170;4.442;2023-04-24T12:02:49;4.15;;;1.20;;
25922;SDS011;13725;51.170;4.442;2023-04-24T12:07:51;6.68;;;1.40;;
25922;SDS011;13725;51.170;4.442;2023-04-24T12:10:24;6.65;;;1.55;;
25922;SDS011;13725;51.170;4.442;2023-04-24T12:12:51;5.22;;;1.10;;
25922;SDS011;13725;51.170;4.442;2023-04-24T12:15:18;8.10;;;1.67;;
25922;SDS011;13725;51.170;4.442;2023-04-24T12:17:45;4.15;;;1.02;;
25922;SDS011;13725;51.170;4.442;2023-04-24T12:20:12;2.10;;;0.90;;
25922;SDS011;13725;51.170;4.442;2023-04-24T12:22:46;5.55;;;1.38;;
25922;SDS011;13725;51.170;4.442;2023-04-24T12:25:14;3.03;;;1.13;;
25922;SDS011;13725;51.170;4.442;2023-04-24T12:27:41;4.05;;;1.15;;
25922;SDS011;13725;51.170;4.442;2023-04-24T12:30:12;3.53;;;0.98;;
25922;SDS011;13725;51.170;4.442;2023-04-24T12:32:46;5.10;;;1.35;;
25922;SDS011;13725;51.170;4.442;2023-04-24T12:35:23;1.90;;;1.48;;
25922;SDS011;13725;51.170;4.442;2023-04-24T12:37:50;7.88;;;1.25;;
25922;SDS011;13725;51.170;4.442;2023-04-24T12:40:17;6.10;;;1.38;;
25922;SDS011;13725;51.170;4.442;2023-04-24T12:45:14;7.50;;;1.90;;
25922;SDS011;13725;51.170;4.442;2023-04-24T12:47:40;2.40;;;1.15;;
25922;SDS011;13725;51.170;4.442;2023-04-24T12:50:08;3.97;;;1.80;;
25922;SDS011;13725;51.170;4.442;2023-04-24T12:52:35;5.97;;;2.00;;
25922;SDS011;13725;51.170;4.442;2023-04-24T12:55:02;12.93;;;2.22;;
25922;SDS011;13725;51.170;4.442;2023-04-24T12:57:28;12.50;;;1.95;;
25922;SDS011;13725;51.170;4.442;2023-04-24T12:59:56;8.05;;;1.60;;
25922;SDS011;13725;51.170;4.442;2023-04-24T13:02:23;3.90;;;1.45;;
25922;SDS011;13725;51.170;4.442;2023-04-24T13:04:50;5.97;;;1.65;;
25922;SDS011;13725;51.170;4.442;2023-04-24T13:07:16;4.55;;;1.55;;
25922;SDS011;13725;51.170;4.442;2023-04-24T13:09:43;4.82;;;1.70;;
25922;SDS011;13725;51.170;4.442;2023-04-24T13:12:10;4.45;;;1.35;;
25922;SDS011;13725;51.170;4.442;2023-04-24T13:14:37;5.40;;;1.30;;
25922;SDS011;13725;51.170;4.442;2023-04-24T13:17:03;6.70;;;1.42;;
25922;SDS011;13725;51.170;4.442;2023-04-24T13:19:29;4.82;;;1.30;;
25922;SDS011;13725;51.170;4.442;2023-04-24T13:22:00;4.00;;;1.20;;
25922;SDS011;13725;51.170;4.442;2023-04-24T13:24:26;2.38;;;1.00;;
25922;SDS011;13725;51.170;4.442;2023-04-24T13:26:52;3.40;;;1.10;;
25922;SDS011;13725;51.170;4.442;2023-04-24T13:29:18;4.13;;;1.00;;
25922;SDS011;13725;51.170;4.442;2023-04-24T13:31:45;4.75;;;1.45;;
25922;SDS011;13725;51.170;4.442;2023-04-24T13:34:12;2.80;;;1.55;;
25922;SDS011;13725;51.170;4.442;2023-04-24T13:36:38;2.97;;;1.05;;
25922;SDS011;13725;51.170;4.442;2023-04-24T13:39:04;3.38;;;1.15;;
25922;SDS011;13725;51.170;4.442;2023-04-24T13:41:31;6.13;;;1.40;;
25922;SDS011;13725;51.170;4.442;2023-04-24T13:43:58;3.35;;;1.38;;
25922;SDS011;13725;51.170;4.442;2023-04-24T13:46:24;3.72;;;1.08;;
25922;SDS011;13725;51.170;4.442;2023-04-24T13:48:50;3.50;;;1.15;;
25922;SDS011;13725;51.170;4.442;2023-04-24T13:51:16;2.83;;;1.00;;
25922;SDS011;13725;51.170;4.442;2023-04-24T13:53:42;2.63;;;1.10;;
25922;SDS011;13725;51.170;4.442;2023-04-24T13:56:07;3.92;;;1.00;;
25922;SDS011;13725;51.170;4.442;2023-04-24T13:58:34;3.78;;;0.82;;
25922;SDS011;13725;51.170;4.442;2023-04-24T14:01:02;2.08;;;1.02;;
25922;SDS011;13725;51.170;4.442;2023-04-24T14:03:28;4.18;;;1.60;;
25922;SDS011;13725;51.170;4.442;2023-04-24T14:05:55;2.88;;;1.42;;
25922;SDS011;13725;51.170;4.442;2023-04-24T14:08:20;2.90;;;1.20;;
25922;SDS011;13725;51.170;4.442;2023-04-24T14:10:46;3.03;;;1.15;;
25922;SDS011;13725;51.170;4.442;2023-04-24T14:13:12;3.00;;;1.00;;
25922;SDS011;13725;51.170;4.442;2023-04-24T14:15:38;4.32;;;1.00;;
25922;SDS011;13725;51.170;4.442;2023-04-24T14:18:04;3.85;;;1.27;;
25922;SDS011;13725;51.170;4.442;2023-04-24T14:20:30;4.95;;;0.90;;
25922;SDS011;13725;51.170;4.442;2023-04-24T14:22:56;2.67;;;1.00;;
25922;SDS011;13725;51.170;4.442;2023-04-24T14:25:24;3.28;;;1.27;;
25922;SDS011;13725;51.170;4.442;2023-04-24T14:27:51;4.18;;;1.08;;
25922;SDS011;13725;51.170;4.442;2023-04-24T14:30:17;4.97;;;1.13;;
25922;SDS011;13725;51.170;4.442;2023-04-24T14:32:44;3.92;;;1.33;;
25922;SDS011;13725;51.170;4.442;2023-04-24T14:35:10;4.07;;;1.10;;
25922;SDS011;13725;51.170;4.442;2023-04-24T14:37:36;2.22;;;1.23;;
25922;SDS011;13725;51.170;4.442;2023-04-24T14:40:03;2.08;;;1.02;;
25922;SDS011;13725;51.170;4.442;2023-04-24T14:42:31;6.10;;;1.20;;
25922;SDS011;13725;51.170;4.442;2023-04-24T14:44:59;3.78;;;0.93;;
25922;SDS011;13725;51.170;4.442;2023-04-24T14:47:25;2.58;;;1.30;;
25922;SDS011;13725;51.170;4.442;2023-04-24T14:49:51;6.18;;;1.58;;
25922;SDS011;13725;51.170;4.442;2023-04-24T14:52:18;1.75;;;0.98;;
25922;SDS011;13725;51.170;4.442;2023-04-24T14:54:44;1.77;;;1.13;;
25922;SDS011;13725;51.170;4.442;2023-04-24T14:57:10;2.85;;;1.20;;
25922;SDS011;13725;51.170;4.442;2023-04-24T14:59:36;2.15;;;1.23;;
25922;SDS011;13725;51.170;4.442;2023-04-24T15:02:01;5.80;;;1.13;;
25922;SDS011;13725;51.170;4.442;2023-04-24T15:04:27;6.65;;;1.48;;
25922;SDS011;13725;51.170;4.442;2023-04-24T15:06:54;4.45;;;1.90;;